sensor_id;sensor_type;location;lat;lon;timestamp;pressure;altitude;pressure_sealevel;temperature;humidity
18201;BME280;9226;47.858;9.594;2023-05-19T00:01:27;95529.56;;;11.22;68.52
18201;BME280;9226;47.858;9.594;2023-05-19T00:03:58;95527.03;;;11.20;68.38
18201;BME280;9226;47.858;9.594;2023-05-19T00:06:28;95522.34;;;11.13;68.88
18201;BME280;9226;47.858;9.594;2023-05-19T00:09:04;95524.84;;;10.93;69.75
18201;BME280;9226;47.858;9.594;2023-05-19T00:11:30;95523.22;;;11.02;69.61
18201;BME280;9226;47.858;9.594;2023-05-19T00:13:57;95519.03;;;10.99;69.48
18201;BME280;9226;47.858;9.594;2023-05-19T00:16:25;95516.41;;;10.88;69.81
18201;BME280;9226;47.858;9.594;2023-05-19T00:18:50;95511.59;;;10.82;70.39
18201;BME280;9226;47.858;9.594;2023-05-19T00:21:17;95504.25;;;10.74;70.77
18201;BME280;9226;47.858;9.594;2023-05-19T00:23:43;95507.47;;;10.89;70.04
18201;BME280;9226;47.858;9.594;2023-05-19T00:26:08;95506.41;;;10.80;70.70
18201;BME280;9226;47.858;9.594;2023-05-19T00:28:34;95500.59;;;10.86;69.83
18201;BME280;9226;47.858;9.594;2023-05-19T00:30:59;95499.91;;;10.73;70.83
18201;BME280;9226;47.858;9.594;2023-05-19T00:33:26;95504.84;;;10.78;70.26
18201;BME280;9226;47.858;9.594;2023-05-19T00:35:52;95498.34;;;10.71;71.06
18201;BME280;9226;47.858;9.594;2023-05-19T00:38:17;95506.31;;;10.59;71.42
18201;BME280;9226;47.858;9.594;2023-05-19T00:40:43;95502.13;;;10.57;71.74
18201;BME280;9226;47.858;9.594;2023-05-19T00:43:08;95490.03;;;10.64;71.02
18201;BME280;9226;47.858;9.594;2023-05-19T00:45:34;95493.03;;;10.59;71.99
18201;BME280;9226;47.858;9.594;2023-05-19T00:47:59;95489.56;;;10.59;71.46
18201;BME280;9226;47.858;9.594;2023-05-19T00:50:25;95493.53;;;10.64;71.35
18201;BME280;9226;47.858;9.594;2023-05-19T00:52:51;95498.22;;;10.61;71.59
18201;BME280;9226;47.858;9.594;2023-05-19T00:55:17;95499.47;;;10.57;71.86
18201;BME280;9226;47.858;9.594;2023-05-19T00:57:43;95495.94;;;10.67;71.13
18201;BME280;9226;47.858;9.594;2023-05-19T01:00:10;95497.38;;;10.72;70.83
18201;BME280;9226;47.858;9.594;2023-05-19T01:02:36;95493.75;;;10.73;71.21
18201;BME280;9226;47.858;9.594;2023-05-19T01:05:05;95496.16;;;10.76;71.20
18201;BME280;9226;47.858;9.594;2023-05-19T01:07:31;95489.41;;;10.72;71.17
18201;BME280;9226;47.858;9.594;2023-05-19T01:09:56;95493.13;;;10.80;70.57
18201;BME280;9226;47.858;9.594;2023-05-19T01:12:22;95497.22;;;10.84;70.09
18201;BME280;9226;47.858;9.594;2023-05-19T01:14:47;95490.88;;;10.64;71.23
18201;BME280;9226;47.858;9.594;2023-05-19T01:19:52;95489.47;;;10.49;71.96
18201;BME280;9226;47.858;9.594;2023-05-19T01:22:46;95484.75;;;10.53;71.77
18201;BME280;9226;47.858;9.594;2023-05-19T01:28:32;95481.72;;;10.57;71.31
18201;BME280;9226;47.858;9.594;2023-05-19T01:31:03;95473.31;;;10.52;71.44
18201;BME280;9226;47.858;9.594;2023-05-19T01:33:31;95484.84;;;10.62;71.05
18201;BME280;9226;47.858;9.594;2023-05-19T01:35:58;95472.34;;;10.53;71.38
18201;BME280;9226;47.858;9.594;2023-05-19T01:38:24;95478.38;;;10.55;71.22
18201;BME280;9226;47.858;9.594;2023-05-19T01:40:50;95484.03;;;10.50;71.26
18201;BME280;9226;47.858;9.594;2023-05-19T01:43:20;95481.25;;;10.52;70.96
18201;BME280;9226;47.858;9.594;2023-05-19T01:45:46;95488.25;;;10.42;71.42
18201;BME280;9226;47.858;9.594;2023-05-19T01:48:13;95489.34;;;10.50;70.58
18201;BME280;9226;47.858;9.594;2023-05-19T01:50:40;95486.94;;;10.47;70.94
18201;BME280;9226;47.858;9.594;2023-05-19T01:53:05;95488.97;;;10.32;71.54
18201;BME280;9226;47.858;9.594;2023-05-19T01:55:31;95491.75;;;10.31;71.23
18201;BME280;9226;47.858;9.594;2023-05-19T01:58:11;95496.69;;;10.36;70.97
18201;BME280;9226;47.858;9.594;2023-05-19T02:01:00;95489.72;;;10.23;71.25
18201;BME280;9226;47.858;9.594;2023-05-19T02:09:17;95493.31;;;10.22;71.20
18201;BME280;9226;47.858;9.594;2023-05-19T02:12:02;95487.19;;;10.22;70.81
18201;BME280;9226;47.858;9.594;2023-05-19T02:15:04;95489.31;;;10.17;71.31
18201;BME280;9226;47.858;9.594;2023-05-19T02:17:24;95491.75;;;10.08;71.60
18201;BME280;9226;47.858;9.594;2023-05-19T02:19:51;95494.50;;;10.18;70.96
18201;BME280;9226;47.858;9.594;2023-05-19T02:22:16;95482.00;;;10.09;71.33
18201;BME280;9226;47.858;9.594;2023-05-19T02:24:42;95492.34;;;10.12;71.38
18201;BME280;9226;47.858;9.594;2023-05-19T02:27:09;95478.97;;;10.02;71.61
18201;BME280;9226;47.858;9.594;2023-05-19T02:29:34;95485.72;;;9.95;71.96
18201;BME280;9226;47.858;9.594;2023-05-19T02:32:00;95479.31;;;9.98;71.72
18201;BME280;9226;47.858;9.594;2023-05-19T02:34:26;95474.25;;;9.94;72.06
18201;BME280;9226;47.858;9.594;2023-05-19T02:36:51;95472.25;;;9.87;72.03
18201;BME280;9226;47.858;9.594;2023-05-19T02:39:16;95473.44;;;9.83;72.42
18201;BME280;9226;47.858;9.594;2023-05-19T02:41:42;95476.19;;;9.92;71.82
18201;BME280;9226;47.858;9.594;2023-05-19T02:44:07;95468.38;;;9.91;72.07
18201;BME280;9226;47.858;9.594;2023-05-19T02:46:33;95468.25;;;9.92;71.98
18201;BME280;9226;47.858;9.594;2023-05-19T02:48:58;95472.84;;;9.90;72.26
18201;BME280;9226;47.858;9.594;2023-05-19T02:51:24;95461.25;;;9.80;72.58
18201;BME280;9226;47.858;9.594;2023-05-19T02:53:49;95467.13;;;9.72;72.99
18201;BME280;9226;47.858;9.594;2023-05-19T02:56:14;95467.03;;;9.74;72.61
18201;BME280;9226;47.858;9.594;2023-05-19T02:58:40;95465.84;;;9.78;72.75
18201;BME280;9226;47.858;9.594;2023-05-19T03:01:07;95467.25;;;9.71;73.27
18201;BME280;9226;47.858;9.594;2023-05-19T03:03:33;95465.00;;;9.66;73.52
18201;BME280;9226;47.858;9.594;2023-05-19T03:05:58;95467.25;;;9.71;73.23
18201;BME280;9226;47.858;9.594;2023-05-19T03:08:24;95456.78;;;9.69;73.13
18201;BME280;9226;47.858;9.594;2023-05-19T03:10:49;95455.13;;;9.68;73.46
18201;BME280;9226;47.858;9.594;2023-05-19T03:13:14;95453.31;;;9.69;73.34
18201;BME280;9226;47.858;9.594;2023-05-19T03:15:41;95451.75;;;9.77;72.89
18201;BME280;9226;47.858;9.594;2023-05-19T03:18:06;95461.72;;;9.74;73.00
18201;BME280;9226;47.858;9.594;2023-05-19T03:20:32;95462.59;;;9.74;73.10
18201;BME280;9226;47.858;9.594;2023-05-19T03:22:57;95464.47;;;9.61;73.62
18201;BME280;9226;47.858;9.594;2023-05-19T03:25:22;95464.38;;;9.74;73.20
18201;BME280;9226;47.858;9.594;2023-05-19T03:27:48;95468.72;;;9.64;73.74
18201;BME280;9226;47.858;9.594;2023-05-19T03:30:13;95470.53;;;9.63;73.75
18201;BME280;9226;47.858;9.594;2023-05-19T03:32:39;95473.31;;;9.73;73.29
18201;BME280;9226;47.858;9.594;2023-05-19T03:35:05;95474.25;;;9.72;73.21
18201;BME280;9226;47.858;9.594;2023-05-19T03:37:30;95473.19;;;9.74;73.39
18201;BME280;9226;47.858;9.594;2023-05-19T03:39:59;95470.66;;;9.73;73.23
18201;BME280;9226;47.858;9.594;2023-05-19T03:42:24;95471.50;;;9.73;73.36
18201;BME280;9226;47.858;9.594;2023-05-19T03:44:50;95474.25;;;9.83;72.83
18201;BME280;9226;47.858;9.594;2023-05-19T03:47:15;95477.91;;;9.82;73.06
18201;BME280;9226;47.858;9.594;2023-05-19T03:49:41;95466.56;;;9.80;73.21
18201;BME280;9226;47.858;9.594;2023-05-19T03:52:06;95472.31;;;9.74;73.43
18201;BME280;9226;47.858;9.594;2023-05-19T03:54:31;95470.41;;;9.76;73.49
18201;BME280;9226;47.858;9.594;2023-05-19T03:56:57;95472.81;;;9.68;73.79
18201;BME280;9226;47.858;9.594;2023-05-19T03:59:23;95472.09;;;9.77;73.38
18201;BME280;9226;47.858;9.594;2023-05-19T04:01:49;95473.88;;;9.54;74.48
18201;BME280;9226;47.858;9.594;2023-05-19T04:04:14;95471.38;;;9.75;73.56
18201;BME280;9226;47.858;9.594;2023-05-19T04:06:40;95467.25;;;9.71;73.86
18201;BME280;9226;47.858;9.594;2023-05-19T04:09:11;95474.97;;;9.63;74.31
18201;BME280;9226;47.858;9.594;2023-05-19T04:11:37;95471.50;;;9.73;73.96
18201;BME280;9226;47.858;9.594;2023-05-19T04:14:04;95472.09;;;9.77;74.03
18201;BME280;9226;47.858;9.594;2023-05-19T04:16:29;95470.78;;;9.83;73.74
18201;BME280;9226;47.858;9.594;2023-05-19T04:18:54;95474.72;;;9.77;74.57
18201;BME280;9226;47.858;9.594;2023-05-19T04:21:20;95473.31;;;9.84;74.19
18201;BME280;9226;47.858;9.594;2023-05-19T04:23:46;95475.97;;;9.95;73.58
18201;BME280;9226;47.858;9.594;2023-05-19T04:26:12;95465.84;;;10.01;73.65
18201;BME280;9226;47.858;9.594;2023-05-19T04:28:39;95474.53;;;10.03;73.41
18201;BME280;9226;47.858;9.594;2023-05-19T04:31:07;95470.41;;;9.99;73.51
18201;BME280;9226;47.858;9.594;2023-05-19T04:33:37;95470.53;;;9.97;73.78
18201;BME280;9226;47.858;9.594;2023-05-19T04:36:03;95480.78;;;10.02;73.69
18201;BME280;9226;47.858;9.594;2023-05-19T04:38:29;95477.66;;;9.96;73.71
18201;BME280;9226;47.858;9.594;2023-05-19T04:40:54;95478.38;;;10.10;73.24
18201;BME280;9226;47.858;9.594;2023-05-19T04:43:20;95478.13;;;10.13;73.06
18201;BME280;9226;47.858;9.594;2023-05-19T04:45:46;95470.19;;;10.13;73.15
18201;BME280;9226;47.858;9.594;2023-05-19T04:48:14;95474.75;;;10.11;73.74
18201;BME280;9226;47.858;9.594;2023-05-19T04:50:39;95477.88;;;10.16;73.75
18201;BME280;9226;47.858;9.594;2023-05-19T04:53:07;95471.63;;;10.28;73.10
18201;BME280;9226;47.858;9.594;2023-05-19T04:55:33;95482.81;;;10.43;72.83
18201;BME280;9226;47.858;9.594;2023-05-19T04:57:58;95477.88;;;10.39;72.83
18201;BME280;9226;47.858;9.594;2023-05-19T05:00:24;95478.59;;;10.52;72.57
18201;BME280;9226;47.858;9.594;2023-05-19T05:02:49;95476.75;;;10.64;72.32
18201;BME280;9226;47.858;9.594;2023-05-19T05:05:15;95473.97;;;10.65;72.25
18201;BME280;9226;47.858;9.594;2023-05-19T05:07:41;95472.50;;;10.84;71.61
18201;BME280;9226;47.858;9.594;2023-05-19T05:10:07;95473.16;;;10.65;71.62
18201;BME280;9226;47.858;9.594;2023-05-19T05:12:34;95473.03;;;10.66;71.82
18201;BME280;9226;47.858;9.594;2023-05-19T05:14:59;95469.72;;;10.85;71.39
18201;BME280;9226;47.858;9.594;2023-05-19T05:17:25;95472.75;;;10.81;71.33
18201;BME280;9226;47.858;9.594;2023-05-19T05:19:51;95475.34;;;10.92;71.40
18201;BME280;9226;47.858;9.594;2023-05-19T05:22:17;95472.91;;;11.00;70.88
18201;BME280;9226;47.858;9.594;2023-05-19T05:24:42;95472.75;;;11.13;70.53
18201;BME280;9226;47.858;9.594;2023-05-19T05:27:08;95476.50;;;11.11;70.82
18201;BME280;9226;47.858;9.594;2023-05-19T05:29:34;95475.19;;;11.05;70.60
18201;BME280;9226;47.858;9.594;2023-05-19T05:31:59;95477.97;;;11.03;70.87
18201;BME280;9226;47.858;9.594;2023-05-19T05:34:25;95477.88;;;10.94;71.29
18201;BME280;9226;47.858;9.594;2023-05-19T05:36:50;95480.88;;;11.00;71.20
18201;BME280;9226;47.858;9.594;2023-05-19T05:39:16;95480.97;;;10.66;71.93
18201;BME280;9226;47.858;9.594;2023-05-19T05:41:41;95480.09;;;10.89;71.52
18201;BME280;9226;47.858;9.594;2023-05-19T05:44:06;95483.47;;;10.79;71.94
18201;BME280;9226;47.858;9.594;2023-05-19T05:46:32;95484.72;;;11.08;71.21
18201;BME280;9226;47.858;9.594;2023-05-19T05:48:57;95482.22;;;10.95;71.91
18201;BME280;9226;47.858;9.594;2023-05-19T05:51:23;95493.94;;;10.92;71.78
18201;BME280;9226;47.858;9.594;2023-05-19T05:53:51;95487.88;;;11.01;71.78
18201;BME280;9226;47.858;9.594;2023-05-19T05:56:17;95491.47;;;11.12;71.69
18201;BME280;9226;47.858;9.594;2023-05-19T05:58:43;95486.63;;;11.17;71.28
18201;BME280;9226;47.858;9.594;2023-05-19T06:01:09;95482.06;;;11.08;71.57
18201;BME280;9226;47.858;9.594;2023-05-19T06:03:40;95481.00;;;10.99;71.56
18201;BME280;9226;47.858;9.594;2023-05-19T06:06:06;95481.34;;;11.06;71.23
18201;BME280;9226;47.858;9.594;2023-05-19T06:08:31;95491.97;;;11.06;70.88
18201;BME280;9226;47.858;9.594;2023-05-19T06:10:56;95492.41;;;10.90;71.58
18201;BME280;9226;47.858;9.594;2023-05-19T06:13:22;95484.06;;;10.94;71.87
18201;BME280;9226;47.858;9.594;2023-05-19T06:15:49;95487.78;;;10.92;72.15
18201;BME280;9226;47.858;9.594;2023-05-19T06:18:15;95491.28;;;10.92;71.71
18201;BME280;9226;47.858;9.594;2023-05-19T06:20:40;95486.47;;;10.86;71.76
18201;BME280;9226;47.858;9.594;2023-05-19T06:23:06;95486.28;;;11.10;71.07
18201;BME280;9226;47.858;9.594;2023-05-19T06:25:31;95485.91;;;11.15;70.98
18201;BME280;9226;47.858;9.594;2023-05-19T06:27:57;95489.09;;;11.30;71.35
18201;BME280;9226;47.858;9.594;2023-05-19T06:30:22;95492.78;;;11.38;71.26
18201;BME280;9226;47.858;9.594;2023-05-19T06:32:47;95482.88;;;11.40;70.71
18201;BME280;9226;47.858;9.594;2023-05-19T06:35:13;95494.41;;;11.30;71.43
18201;BME280;9226;47.858;9.594;2023-05-19T06:37:38;95490.19;;;11.27;70.51
18201;BME280;9226;47.858;9.594;2023-05-19T06:40:04;95492.25;;;11.45;70.08
18201;BME280;9226;47.858;9.594;2023-05-19T06:42:29;95491.50;;;11.54;69.66
18201;BME280;9226;47.858;9.594;2023-05-19T06:44:55;95494.22;;;11.43;70.22
18201;BME280;9226;47.858;9.594;2023-05-19T06:47:20;95492.81;;;11.27;70.52
18201;BME280;9226;47.858;9.594;2023-05-19T06:49:46;95495.44;;;11.38;70.11
18201;BME280;9226;47.858;9.594;2023-05-19T06:52:19;95488.66;;;11.46;69.90
18201;BME280;9226;47.858;9.594;2023-05-19T06:54:44;95494.34;;;11.62;69.41
18201;BME280;9226;47.858;9.594;2023-05-19T06:57:10;95496.47;;;11.26;70.14
18201;BME280;9226;47.858;9.594;2023-05-19T06:59:35;95487.88;;;11.55;70.09
18201;BME280;9226;47.858;9.594;2023-05-19T07:02:01;95488.44;;;11.37;69.63
18201;BME280;9226;47.858;9.594;2023-05-19T07:04:27;95492.94;;;11.58;70.06
18201;BME280;9226;47.858;9.594;2023-05-19T07:06:52;95491.81;;;11.82;69.49
18201;BME280;9226;47.858;9.594;2023-05-19T07:09:19;95496.16;;;11.62;68.84
18201;BME280;9226;47.858;9.594;2023-05-19T07:11:44;95493.63;;;11.60;69.08
18201;BME280;9226;47.858;9.594;2023-05-19T07:14:10;95491.63;;;11.73;68.98
18201;BME280;9226;47.858;9.594;2023-05-19T07:16:35;95492.66;;;11.82;69.17
18201;BME280;9226;47.858;9.594;2023-05-19T07:19:01;95497.19;;;11.91;68.25
18201;BME280;9226;47.858;9.594;2023-05-19T07:21:26;95489.28;;;12.01;68.55
18201;BME280;9226;47.858;9.594;2023-05-19T07:23:51;95490.94;;;11.81;69.07
18201;BME280;9226;47.858;9.594;2023-05-19T07:26:17;95491.28;;;11.88;68.31
18201;BME280;9226;47.858;9.594;2023-05-19T07:28:42;95482.09;;;11.92;68.26
18201;BME280;9226;47.858;9.594;2023-05-19T07:31:08;95481.09;;;12.14;67.44
18201;BME280;9226;47.858;9.594;2023-05-19T07:33:33;95477.94;;;11.99;68.03
18201;BME280;9226;47.858;9.594;2023-05-19T07:35:59;95484.59;;;12.15;67.98
18201;BME280;9226;47.858;9.594;2023-05-19T07:38:24;95479.59;;;12.21;67.62
18201;BME280;9226;47.858;9.594;2023-05-19T07:40:50;95477.38;;;12.36;67.85
18201;BME280;9226;47.858;9.594;2023-05-19T07:43:15;95484.53;;;12.76;66.13
18201;BME280;9226;47.858;9.594;2023-05-19T07:45:41;95480.16;;;12.75;66.17
18201;BME280;9226;47.858;9.594;2023-05-19T07:48:06;95476.81;;;12.93;66.08
18201;BME280;9226;47.858;9.594;2023-05-19T07:50:32;95469.66;;;12.74;65.56
18201;BME280;9226;47.858;9.594;2023-05-19T07:52:57;95468.59;;;13.25;64.82
18201;BME280;9226;47.858;9.594;2023-05-19T07:55:22;95469.69;;;13.62;63.25
18201;BME280;9226;47.858;9.594;2023-05-19T07:57:48;95482.31;;;13.60;62.81
18201;BME280;9226;47.858;9.594;2023-05-19T08:00:15;95474.22;;;13.42;62.22
18201;BME280;9226;47.858;9.594;2023-05-19T08:02:42;95474.75;;;13.65;62.82
18201;BME280;9226;47.858;9.594;2023-05-19T08:05:08;95468.53;;;13.84;61.55
18201;BME280;9226;47.858;9.594;2023-05-19T08:07:33;95473.13;;;13.91;61.31
18201;BME280;9226;47.858;9.594;2023-05-19T08:09:59;95471.25;;;14.11;61.50
18201;BME280;9226;47.858;9.594;2023-05-19T08:12:25;95475.78;;;13.91;61.23
18201;BME280;9226;47.858;9.594;2023-05-19T08:14:50;95475.34;;;14.06;60.37
18201;BME280;9226;47.858;9.594;2023-05-19T08:17:16;95462.84;;;14.06;59.95
18201;BME280;9226;47.858;9.594;2023-05-19T08:19:42;95461.31;;;14.59;61.72
18201;BME280;9226;47.858;9.594;2023-05-19T08:22:07;95458.75;;;14.77;59.65
18201;BME280;9226;47.858;9.594;2023-05-19T08:24:33;95463.16;;;14.69;59.10
18201;BME280;9226;47.858;9.594;2023-05-19T08:26:58;95459.91;;;14.37;59.29
18201;BME280;9226;47.858;9.594;2023-05-19T08:29:23;95462.31;;;14.86;59.36
18201;BME280;9226;47.858;9.594;2023-05-19T08:31:49;95463.06;;;14.78;58.08
18201;BME280;9226;47.858;9.594;2023-05-19T08:34:14;95458.75;;;14.95;57.67
18201;BME280;9226;47.858;9.594;2023-05-19T08:36:40;95459.13;;;14.82;57.74
18201;BME280;9226;47.858;9.594;2023-05-19T08:39:06;95467.38;;;14.34;58.53
18201;BME280;9226;47.858;9.594;2023-05-19T08:41:31;95452.53;;;14.77;58.04
18201;BME280;9226;47.858;9.594;2023-05-19T08:43:57;95454.31;;;14.86;57.35
18201;BME280;9226;47.858;9.594;2023-05-19T08:46:24;95459.50;;;15.42;56.85
18201;BME280;9226;47.858;9.594;2023-05-19T08:48:53;95453.44;;;15.76;56.68
18201;BME280;9226;47.858;9.594;2023-05-19T08:54:03;95445.88;;;16.58;51.99
18201;BME280;9226;47.858;9.594;2023-05-19T08:56:31;95446.56;;;16.68;52.37
18201;BME280;9226;47.858;9.594;2023-05-19T08:58:57;95441.72;;;17.14;51.40
18201;BME280;9226;47.858;9.594;2023-05-19T09:01:24;95449.34;;;16.50;52.25
18201;BME280;9226;47.858;9.594;2023-05-19T09:03:53;95444.59;;;16.70;52.44
18201;BME280;9226;47.858;9.594;2023-05-19T09:06:18;95445.28;;;16.80;53.04
18201;BME280;9226;47.858;9.594;2023-05-19T09:08:44;95444.78;;;16.85;52.81
18201;BME280;9226;47.858;9.594;2023-05-19T09:11:11;95445.16;;;16.48;52.11
18201;BME280;9226;47.858;9.594;2023-05-19T09:13:37;95451.28;;;16.32;53.41
18201;BME280;9226;47.858;9.594;2023-05-19T09:16:02;95440.97;;;16.88;53.30
18201;BME280;9226;47.858;9.594;2023-05-19T09:18:28;95433.94;;;16.87;51.78
18201;BME280;9226;47.858;9.594;2023-05-19T09:20:58;95434.00;;;17.36;51.00
18201;BME280;9226;47.858;9.594;2023-05-19T09:23:28;95440.88;;;16.63;50.90
18201;BME280;9226;47.858;9.594;2023-05-19T09:25:54;95440.50;;;17.09;51.05
18201;BME280;9226;47.858;9.594;2023-05-19T09:28:34;95440.97;;;16.88;51.08
18201;BME280;9226;47.858;9.594;2023-05-19T09:31:10;95434.50;;;16.56;51.71
18201;BME280;9226;47.858;9.594;2023-05-19T09:33:37;95434.53;;;16.64;51.46
18201;BME280;9226;47.858;9.594;2023-05-19T09:36:03;95442.19;;;17.02;52.19
18201;BME280;9226;47.858;9.594;2023-05-19T09:38:30;95433.78;;;16.96;51.03
18201;BME280;9226;47.858;9.594;2023-05-19T09:40:56;95429.72;;;16.84;51.17
18201;BME280;9226;47.858;9.594;2023-05-19T09:43:22;95427.88;;;16.85;50.99
18201;BME280;9226;47.858;9.594;2023-05-19T09:45:53;95423.63;;;16.66;51.71
18201;BME280;9226;47.858;9.594;2023-05-19T09:48:19;95426.69;;;16.79;50.64
18201;BME280;9226;47.858;9.594;2023-05-19T09:50:44;95431.50;;;16.67;51.47
18201;BME280;9226;47.858;9.594;2023-05-19T09:53:13;95426.88;;;16.43;51.87
18201;BME280;9226;47.858;9.594;2023-05-19T09:55:39;95429.63;;;17.02;51.44
18201;BME280;9226;47.858;9.594;2023-05-19T09:58:05;95430.50;;;16.68;51.49
18201;BME280;9226;47.858;9.594;2023-05-19T10:00:31;95429.59;;;16.94;52.08
18201;BME280;9226;47.858;9.594;2023-05-19T10:02:58;95420.38;;;16.45;51.61
18201;BME280;9226;47.858;9.594;2023-05-19T10:05:25;95430.44;;;16.52;52.56
18201;BME280;9226;47.858;9.594;2023-05-19T10:07:53;95420.63;;;16.69;53.18
18201;BME280;9226;47.858;9.594;2023-05-19T10:10:19;95418.84;;;16.86;52.49
18201;BME280;9226;47.858;9.594;2023-05-19T10:12:45;95419.59;;;17.37;52.37
18201;BME280;9226;47.858;9.594;2023-05-19T10:15:13;95423.97;;;17.46;51.93
18201;BME280;9226;47.858;9.594;2023-05-19T10:17:40;95421.91;;;16.91;51.71
18201;BME280;9226;47.858;9.594;2023-05-19T10:20:12;95423.94;;;17.22;52.29
18201;BME280;9226;47.858;9.594;2023-05-19T10:22:39;95433.56;;;16.81;51.68
18201;BME280;9226;47.858;9.594;2023-05-19T10:25:05;95418.91;;;17.18;51.43
18201;BME280;9226;47.858;9.594;2023-05-19T10:27:33;95421.94;;;17.32;50.87
18201;BME280;9226;47.858;9.594;2023-05-19T10:30:05;95416.75;;;17.22;50.57
18201;BME280;9226;47.858;9.594;2023-05-19T10:32:32;95426.22;;;16.92;51.52
18201;BME280;9226;47.858;9.594;2023-05-19T10:37:45;95412.78;;;16.83;51.04
18201;BME280;9226;47.858;9.594;2023-05-19T10:40:28;95428.03;;;16.83;51.64
18201;BME280;9226;47.858;9.594;2023-05-19T10:45:46;95425.03;;;16.35;52.40
18201;BME280;9226;47.858;9.594;2023-05-19T10:48:16;95426.38;;;16.39;52.60
18201;BME280;9226;47.858;9.594;2023-05-19T10:50:45;95428.66;;;16.18;53.47
18201;BME280;9226;47.858;9.594;2023-05-19T10:53:17;95430.91;;;16.04;53.43
18201;BME280;9226;47.858;9.594;2023-05-19T10:55:54;95428.66;;;16.18;54.10
18201;BME280;9226;47.858;9.594;2023-05-19T11:01:00;95428.59;;;16.09;54.64
18201;BME280;9226;47.858;9.594;2023-05-19T11:03:27;95421.16;;;15.95;54.08
18201;BME280;9226;47.858;9.594;2023-05-19T11:06:16;95427.19;;;15.97;54.28
18201;BME280;9226;47.858;9.594;2023-05-19T11:08:42;95430.19;;;15.76;54.26
18201;BME280;9226;47.858;9.594;2023-05-19T11:11:13;95420.03;;;15.53;54.84
18201;BME280;9226;47.858;9.594;2023-05-19T11:13:41;95426.88;;;15.12;56.38
18201;BME280;9226;47.858;9.594;2023-05-19T11:16:07;95431.41;;;15.19;55.69
18201;BME280;9226;47.858;9.594;2023-05-19T11:18:34;95431.28;;;15.21;56.08
18201;BME280;9226;47.858;9.594;2023-05-19T11:21:00;95434.97;;;15.20;56.43
18201;BME280;9226;47.858;9.594;2023-05-19T11:23:26;95433.88;;;15.13;56.76
18201;BME280;9226;47.858;9.594;2023-05-19T11:25:52;95430.03;;;14.79;57.64
18201;BME280;9226;47.858;9.594;2023-05-19T11:28:22;95432.78;;;14.88;57.18
18201;BME280;9226;47.858;9.594;2023-05-19T11:30:56;95426.75;;;14.68;57.78
18201;BME280;9226;47.858;9.594;2023-05-19T11:33:23;95423.84;;;14.61;58.20
18201;BME280;9226;47.858;9.594;2023-05-19T11:35:53;95432.84;;;14.60;58.74
18201;BME280;9226;47.858;9.594;2023-05-19T11:38:22;95426.94;;;14.84;58.09
18201;BME280;9226;47.858;9.594;2023-05-19T11:40:48;95435.31;;;14.89;57.94
18201;BME280;9226;47.858;9.594;2023-05-19T11:43:16;95422.53;;;14.93;58.26
18201;BME280;9226;47.858;9.594;2023-05-19T11:45:42;95420.28;;;15.24;57.83
18201;BME280;9226;47.858;9.594;2023-05-19T11:48:11;95423.38;;;15.55;57.02
18201;BME280;9226;47.858;9.594;2023-05-19T11:50:39;95418.06;;;15.82;56.02
18201;BME280;9226;47.858;9.594;2023-05-19T11:53:05;95413.31;;;15.76;55.25
18201;BME280;9226;47.858;9.594;2023-05-19T11:55:30;95411.47;;;15.50;54.94
18201;BME280;9226;47.858;9.594;2023-05-19T11:58:00;95417.19;;;15.55;55.99
18201;BME280;9226;47.858;9.594;2023-05-19T12:00:33;95409.63;;;15.50;56.29
18201;BME280;9226;47.858;9.594;2023-05-19T12:03:01;95418.22;;;15.62;56.29
18201;BME280;9226;47.858;9.594;2023-05-19T12:05:27;95411.06;;;15.45;57.00
18201;BME280;9226;47.858;9.594;2023-05-19T12:07:53;95426.63;;;15.67;56.43
18201;BME280;9226;47.858;9.594;2023-05-19T12:10:28;95425.47;;;15.44;57.33
18201;BME280;9226;47.858;9.594;2023-05-19T12:12:55;95427.69;;;15.30;57.20
18201;BME280;9226;47.858;9.594;2023-05-19T12:15:21;95420.22;;;14.98;57.35
18201;BME280;9226;47.858;9.594;2023-05-19T12:17:55;95420.16;;;15.08;57.95
18201;BME280;9226;47.858;9.594;2023-05-19T12:20:22;95410.06;;;14.83;58.44
18201;BME280;9226;47.858;9.594;2023-05-19T12:22:47;95417.78;;;15.05;58.61
18201;BME280;9226;47.858;9.594;2023-05-19T12:25:14;95416.31;;;14.92;58.28
18201;BME280;9226;47.858;9.594;2023-05-19T12:27:41;95413.28;;;14.87;57.89
18201;BME280;9226;47.858;9.594;2023-05-19T12:30:07;95425.25;;;15.01;58.25
18201;BME280;9226;47.858;9.594;2023-05-19T12:32:33;95411.16;;;15.09;57.58
18201;BME280;9226;47.858;9.594;2023-05-19T12:35:02;95414.34;;;15.12;57.40
18201;BME280;9226;47.858;9.594;2023-05-19T12:37:28;95412.97;;;15.26;57.79
18201;BME280;9226;47.858;9.594;2023-05-19T12:39:55;95412.09;;;15.44;58.49
18201;BME280;9226;47.858;9.594;2023-05-19T12:42:21;95414.06;;;15.42;57.91
18201;BME280;9226;47.858;9.594;2023-05-19T12:44:48;95397.97;;;15.33;58.52
18201;BME280;9226;47.858;9.594;2023-05-19T12:47:16;95405.50;;;15.56;57.53
18201;BME280;9226;47.858;9.594;2023-05-19T12:50:06;95407.16;;;15.57;58.05
18201;BME280;9226;47.858;9.594;2023-05-19T12:52:40;95392.97;;;15.83;57.00
18201;BME280;9226;47.858;9.594;2023-05-19T12:55:07;95390.53;;;15.71;56.84
18201;BME280;9226;47.858;9.594;2023-05-19T12:57:34;95400.00;;;15.58;56.50
18201;BME280;9226;47.858;9.594;2023-05-19T13:00:07;95392.75;;;15.76;56.78
18201;BME280;9226;47.858;9.594;2023-05-19T13:03:01;95394.22;;;15.70;57.00
18201;BME280;9226;47.858;9.594;2023-05-19T13:05:30;95391.50;;;16.15;56.42
18201;BME280;9226;47.858;9.594;2023-05-19T13:08:05;95394.53;;;16.20;56.11
18201;BME280;9226;47.858;9.594;2023-05-19T13:10:32;95387.97;;;16.65;56.37
18201;BME280;9226;47.858;9.594;2023-05-19T13:12:58;95389.00;;;16.72;55.60
18201;BME280;9226;47.858;9.594;2023-05-19T13:15:28;95383.28;;;16.59;54.54
18201;BME280;9226;47.858;9.594;2023-05-19T13:17:56;95377.94;;;16.75;54.51
18201;BME280;9226;47.858;9.594;2023-05-19T13:20:22;95382.81;;;16.80;54.37
18201;BME280;9226;47.858;9.594;2023-05-19T13:22:48;95384.66;;;16.79;54.79
18201;BME280;9226;47.858;9.594;2023-05-19T13:25:14;95387.69;;;16.76;54.71
18201;BME280;9226;47.858;9.594;2023-05-19T13:27:41;95383.19;;;16.34;54.33
18201;BME280;9226;47.858;9.594;2023-05-19T13:30:07;95384.25;;;16.50;54.71
18201;BME280;9226;47.858;9.594;2023-05-19T13:32:33;95384.25;;;16.41;54.86
18201;BME280;9226;47.858;9.594;2023-05-19T13:34:59;95378.91;;;16.07;54.25